createdAt,value
2017-12-29T00:01:15.708Z,10.63
2017-12-29T00:03:43.602Z,8.97
2017-12-29T00:06:11.467Z,10.50
2017-12-29T00:08:39.404Z,9.20
2017-12-29T00:11:07.280Z,11.30
2017-12-29T00:13:35.147Z,10.07
2017-12-29T00:16:03.036Z,11.13
2017-12-29T00:18:30.934Z,9.47
2017-12-29T00:20:58.803Z,11.93
2017-12-29T00:23:26.767Z,10.70
2017-12-29T00:25:54.717Z,10.80
2017-12-29T00:28:22.573Z,10.87
2017-12-29T00:30:50.477Z,11.70
2017-12-29T00:33:18.357Z,11.80
2017-12-29T00:35:46.260Z,12.13
2017-12-29T00:38:14.173Z,10.13
2017-12-29T00:40:42.049Z,12.53
2017-12-29T00:43:10.175Z,11.53
2017-12-29T00:45:38.084Z,13.10
2017-12-29T00:48:05.942Z,12.00
2017-12-29T00:50:33.788Z,12.13
2017-12-29T00:53:01.765Z,11.80
2017-12-29T00:55:29.640Z,11.40
2017-12-29T00:57:57.490Z,11.00
2017-12-29T01:00:25.393Z,10.90
2017-12-29T01:02:53.245Z,10.80
2017-12-29T01:05:21.139Z,11.77
2017-12-29T01:07:49.040Z,11.90
2017-12-29T01:10:17.053Z,12.20
2017-12-29T01:12:44.945Z,10.77
2017-12-29T01:15:12.914Z,11.90
2017-12-29T01:17:40.804Z,10.63
2017-12-29T01:20:08.665Z,11.23
2017-12-29T01:22:36.536Z,11.13
2017-12-29T01:25:04.388Z,10.93
2017-12-29T01:27:32.261Z,10.20
2017-12-29T01:30:00.186Z,11.50
2017-12-29T01:32:28.076Z,12.53
2017-12-29T01:34:55.949Z,11.70
2017-12-29T01:37:23.847Z,10.30
2017-12-29T01:39:51.771Z,10.87
2017-12-29T01:42:19.776Z,11.00
2017-12-29T01:44:47.665Z,11.27
2017-12-29T01:47:15.536Z,10.17
2017-12-29T01:49:43.400Z,11.10
2017-12-29T01:52:11.372Z,10.20
2017-12-29T01:54:39.272Z,9.93
2017-12-29T01:57:07.168Z,9.60
2017-12-29T01:59:35.056Z,9.80
2017-12-29T02:02:02.983Z,10.00
2017-12-29T02:04:30.939Z,9.67
2017-12-29T02:06:58.852Z,9.63
2017-12-29T02:09:26.739Z,8.63
2017-12-29T02:11:54.644Z,10.00
2017-12-29T02:14:22.547Z,9.90
2017-12-29T02:16:50.447Z,9.93
2017-12-29T02:19:18.299Z,9.37
2017-12-29T02:21:46.187Z,9.50
2017-12-29T02:24:14.048Z,8.80
2017-12-29T02:26:41.967Z,9.77
2017-12-29T02:29:10.077Z,8.97
2017-12-29T02:31:37.965Z,9.10
2017-12-29T02:34:05.824Z,8.83
2017-12-29T02:36:33.798Z,9.27
2017-12-29T02:39:01.701Z,9.63
2017-12-29T02:41:29.684Z,8.50
2017-12-29T02:43:57.572Z,8.67
2017-12-29T02:46:25.768Z,8.23
2017-12-29T02:48:53.628Z,9.50
2017-12-29T02:51:21.510Z,8.43
2017-12-29T02:53:49.373Z,9.23
2017-12-29T02:56:17.270Z,8.73
2017-12-29T02:58:45.167Z,8.70
2017-12-29T03:01:13.128Z,8.80
2017-12-29T03:03:41.045Z,8.87
2017-12-29T03:06:08.919Z,8.80
2017-12-29T03:08:37.045Z,8.60
2017-12-29T03:11:04.898Z,9.00
2017-12-29T03:13:32.756Z,8.20
2017-12-29T03:16:00.613Z,8.90
2017-12-29T03:18:28.576Z,9.03
2017-12-29T03:20:56.479Z,9.47
2017-12-29T03:23:24.356Z,8.53
2017-12-29T03:25:52.216Z,7.97
2017-12-29T03:28:20.087Z,8.83
2017-12-29T03:30:47.943Z,8.13
2017-12-29T03:33:15.811Z,9.30
2017-12-29T03:35:43.724Z,8.30
2017-12-29T03:38:11.579Z,9.53
2017-12-29T03:40:39.477Z,8.33
2017-12-29T03:43:07.387Z,8.07
2017-12-29T03:45:35.751Z,7.60
2017-12-29T03:48:03.626Z,8.20
2017-12-29T03:50:31.520Z,8.23
2017-12-29T03:52:59.393Z,7.90
2017-12-29T03:55:27.268Z,7.50
2017-12-29T03:57:55.325Z,8.47
2017-12-29T04:00:23.191Z,8.23
2017-12-29T04:02:51.064Z,7.47
2017-12-29T04:05:18.963Z,7.90
2017-12-29T04:07:46.831Z,8.73
2017-12-29T04:10:14.693Z,8.00
2017-12-29T04:12:42.603Z,8.60
2017-12-29T04:15:10.502Z,8.60
2017-12-29T04:17:38.368Z,8.50
2017-12-29T04:20:06.296Z,8.03
2017-12-29T04:22:34.181Z,7.93
2017-12-29T04:25:02.041Z,9.10
2017-12-29T04:27:29.932Z,8.70
2017-12-29T04:29:57.792Z,9.30
2017-12-29T04:32:25.655Z,8.73
2017-12-29T04:34:53.544Z,8.73
2017-12-29T04:37:21.428Z,9.10
2017-12-29T04:39:49.317Z,8.10
2017-12-29T04:42:17.195Z,8.87
2017-12-29T04:44:45.044Z,8.80
2017-12-29T04:47:12.947Z,7.80
2017-12-29T04:49:40.828Z,8.60
2017-12-29T04:52:08.715Z,8.00
2017-12-29T04:54:36.600Z,7.93
2017-12-29T04:57:04.484Z,7.80
2017-12-29T04:59:32.433Z,8.83
2017-12-29T05:02:00.308Z,8.00
2017-12-29T05:04:28.188Z,7.63
2017-12-29T05:06:56.041Z,7.60
2017-12-29T05:09:23.951Z,9.23
2017-12-29T05:11:53.867Z,8.20
2017-12-29T05:14:21.719Z,8.13
2017-12-29T05:16:49.590Z,7.40
2017-12-29T05:19:17.479Z,8.53
2017-12-29T05:21:45.414Z,7.57
2017-12-29T05:24:13.320Z,7.70
2017-12-29T05:26:41.224Z,8.10
2017-12-29T05:29:09.093Z,8.50
2017-12-29T05:31:36.956Z,7.60
2017-12-29T05:34:04.829Z,7.40
2017-12-29T05:36:32.760Z,7.93
2017-12-29T05:39:00.663Z,8.63
2017-12-29T05:41:28.544Z,8.37
2017-12-29T05:43:56.419Z,8.30
2017-12-29T05:46:24.766Z,8.50
2017-12-29T05:48:52.669Z,8.90
2017-12-29T05:51:20.646Z,9.73
2017-12-29T05:53:48.558Z,8.87
2017-12-29T05:56:16.477Z,10.17
2017-12-29T05:58:44.352Z,9.13
2017-12-29T06:01:13.246Z,15.77
2017-12-29T06:03:42.109Z,8.50
2017-12-29T06:06:09.981Z,8.73
2017-12-29T06:08:39.073Z,8.83
2017-12-29T06:11:07.061Z,9.37
2017-12-29T06:13:34.908Z,8.77
2017-12-29T06:16:02.771Z,9.47
2017-12-29T06:18:30.672Z,8.70
2017-12-29T06:20:58.565Z,9.03
2017-12-29T06:23:26.462Z,8.17
2017-12-29T06:25:54.365Z,9.00
2017-12-29T06:28:22.228Z,8.87
2017-12-29T06:30:50.098Z,8.90
2017-12-29T06:33:17.979Z,9.67
2017-12-29T06:35:45.919Z,8.53
2017-12-29T06:38:13.824Z,8.10
2017-12-29T06:40:41.711Z,8.40
2017-12-29T06:43:09.578Z,8.33
2017-12-29T06:45:37.481Z,8.20
2017-12-29T06:48:05.364Z,8.40
2017-12-29T06:50:33.221Z,8.67
2017-12-29T06:53:01.084Z,9.07
2017-12-29T06:55:28.965Z,9.50
2017-12-29T06:57:56.805Z,8.37
2017-12-29T07:00:24.654Z,9.80
2017-12-29T07:02:52.547Z,8.80
2017-12-29T07:05:20.383Z,9.27
2017-12-29T07:07:48.242Z,8.77
2017-12-29T07:10:16.111Z,8.70
2017-12-29T07:12:43.983Z,8.53
2017-12-29T07:15:11.839Z,8.33
2017-12-29T07:17:39.695Z,8.60
2017-12-29T07:20:07.541Z,6.73
2017-12-29T07:22:35.404Z,8.63
2017-12-29T07:25:03.341Z,8.23
2017-12-29T07:27:31.184Z,7.77
2017-12-29T07:29:59.040Z,7.67
2017-12-29T07:32:26.919Z,7.60
2017-12-29T07:34:54.790Z,8.20
2017-12-29T07:37:22.688Z,7.90
2017-12-29T07:39:50.561Z,8.10
2017-12-29T07:42:18.417Z,7.83
2017-12-29T07:44:46.344Z,8.07
2017-12-29T07:47:14.217Z,7.77
2017-12-29T07:49:42.072Z,8.10
2017-12-29T07:52:09.946Z,8.33
2017-12-29T07:54:37.858Z,8.20
2017-12-29T07:57:05.705Z,7.17
2017-12-29T07:59:33.587Z,7.80
2017-12-29T08:02:01.484Z,7.43
2017-12-29T08:04:29.345Z,6.97
2017-12-29T08:06:57.188Z,6.83
2017-12-29T08:09:25.078Z,7.40
2017-12-29T08:11:52.929Z,7.20
2017-12-29T08:14:20.789Z,7.37
2017-12-29T08:16:48.656Z,7.83
2017-12-29T08:19:16.499Z,7.53
2017-12-29T08:21:44.379Z,7.63
2017-12-29T08:24:12.895Z,7.43
2017-12-29T08:26:40.836Z,8.20
2017-12-29T08:29:08.820Z,7.63
2017-12-29T08:31:36.692Z,7.70
2017-12-29T08:34:04.551Z,7.37
2017-12-29T08:36:32.403Z,9.33
2017-12-29T08:39:00.309Z,8.43
2017-12-29T08:41:29.211Z,8.47
2017-12-29T08:43:57.117Z,7.30
2017-12-29T08:46:25.040Z,8.37
2017-12-29T08:48:52.948Z,7.70
2017-12-29T08:51:21.489Z,7.20
2017-12-29T08:53:49.372Z,7.60
2017-12-29T08:56:17.272Z,8.90
2017-12-29T08:58:47.028Z,8.60
2017-12-29T09:01:15.070Z,7.83
2017-12-29T09:03:42.933Z,8.23
2017-12-29T09:06:10.824Z,7.80
2017-12-29T09:08:38.727Z,8.83
2017-12-29T09:11:06.587Z,8.00
2017-12-29T09:13:34.462Z,8.90
2017-12-29T09:16:02.333Z,9.13
2017-12-29T09:18:30.199Z,9.20
2017-12-29T09:20:58.260Z,7.90
2017-12-29T09:23:26.156Z,7.53
2017-12-29T09:25:54.009Z,8.13
2017-12-29T09:28:21.903Z,8.50
2017-12-29T09:30:49.782Z,7.13
2017-12-29T09:33:17.647Z,7.87
2017-12-29T09:35:45.492Z,7.80
2017-12-29T09:38:13.360Z,8.30
2017-12-29T09:40:41.212Z,7.40
2017-12-29T09:43:09.059Z,7.20
2017-12-29T09:45:36.933Z,7.47
2017-12-29T09:48:04.881Z,6.77
2017-12-29T09:50:32.721Z,6.90
2017-12-29T09:53:00.606Z,6.20
2017-12-29T09:55:28.464Z,7.00
2017-12-29T09:57:56.344Z,6.50
2017-12-29T10:00:24.212Z,7.20
2017-12-29T10:02:52.110Z,7.53
2017-12-29T10:05:19.987Z,8.13
2017-12-29T10:07:47.927Z,7.43
2017-12-29T10:10:15.780Z,13.37
2017-12-29T10:12:43.644Z,6.60
2017-12-29T10:15:11.519Z,6.73
2017-12-29T10:17:39.436Z,6.40
2017-12-29T10:20:07.316Z,7.23
2017-12-29T10:22:35.206Z,7.70
2017-12-29T10:25:03.074Z,7.83
2017-12-29T10:27:30.943Z,7.27
2017-12-29T10:29:58.856Z,6.93
2017-12-29T10:32:26.714Z,6.47
2017-12-29T10:34:54.587Z,6.37
2017-12-29T10:37:22.493Z,7.80
2017-12-29T10:39:50.369Z,6.53
2017-12-29T10:42:18.211Z,6.80
2017-12-29T10:44:46.111Z,6.40
2017-12-29T10:47:13.981Z,6.47
2017-12-29T10:49:41.839Z,6.37
2017-12-29T10:52:09.819Z,8.53
2017-12-29T10:54:37.723Z,7.17
2017-12-29T10:57:05.576Z,6.93
2017-12-29T10:59:33.487Z,5.60
2017-12-29T11:02:01.383Z,6.50
2017-12-29T11:04:29.281Z,8.03
2017-12-29T11:06:57.179Z,7.17
2017-12-29T11:09:25.037Z,6.33
2017-12-29T11:11:52.924Z,5.83
2017-12-29T11:14:20.865Z,6.03
2017-12-29T11:16:48.724Z,6.90
2017-12-29T11:19:16.576Z,6.80
2017-12-29T11:21:44.474Z,6.20
2017-12-29T11:24:12.321Z,8.13
2017-12-29T11:26:40.173Z,6.10
2017-12-29T11:29:08.116Z,6.33
2017-12-29T11:31:36.027Z,6.33
2017-12-29T11:34:03.884Z,4.93
2017-12-29T11:36:31.812Z,7.13
2017-12-29T11:38:59.702Z,6.03
2017-12-29T11:41:27.572Z,6.10
2017-12-29T11:43:55.495Z,6.03
2017-12-29T11:46:23.381Z,7.10
2017-12-29T11:48:51.231Z,6.03
2017-12-29T11:51:19.114Z,7.37
2017-12-29T11:53:46.977Z,6.40
2017-12-29T11:56:14.838Z,6.97
2017-12-29T11:58:42.730Z,7.80
2017-12-29T12:01:10.688Z,7.40
2017-12-29T12:03:38.604Z,7.30
2017-12-29T12:06:06.489Z,5.90
2017-12-29T12:08:34.347Z,6.77
2017-12-29T12:11:02.202Z,6.87
2017-12-29T12:13:30.108Z,5.53
2017-12-29T12:15:57.980Z,5.80
2017-12-29T12:18:25.828Z,5.20
2017-12-29T12:20:53.727Z,5.73
2017-12-29T12:23:21.598Z,5.90
2017-12-29T12:25:49.522Z,5.17
2017-12-29T12:28:17.411Z,6.50
2017-12-29T12:30:45.265Z,5.47
2017-12-29T12:33:13.345Z,5.60
2017-12-29T12:35:41.244Z,5.37
2017-12-29T12:38:09.095Z,5.80
2017-12-29T12:40:36.965Z,5.23
2017-12-29T12:43:07.779Z,5.63
2017-12-29T12:45:35.719Z,5.30
2017-12-29T12:48:03.608Z,5.50
2017-12-29T12:50:31.547Z,6.53
2017-12-29T12:53:00.227Z,6.80
2017-12-29T12:55:28.141Z,5.40
2017-12-29T12:57:56.037Z,6.07
2017-12-29T13:00:23.910Z,6.10
2017-12-29T13:02:51.805Z,7.00
2017-12-29T13:05:19.694Z,5.70
2017-12-29T13:07:47.547Z,5.27
2017-12-29T13:10:15.397Z,4.60
2017-12-29T13:12:43.283Z,6.30
2017-12-29T13:15:11.159Z,4.60
2017-12-29T13:17:39.011Z,5.30
2017-12-29T13:20:06.904Z,5.60
2017-12-29T13:22:34.748Z,6.03
2017-12-29T13:25:02.622Z,6.60
2017-12-29T13:27:30.508Z,6.67
2017-12-29T13:29:58.384Z,4.50
2017-12-29T13:32:26.249Z,4.67
2017-12-29T13:34:54.187Z,5.07
2017-12-29T13:37:22.081Z,4.90
2017-12-29T13:39:49.939Z,4.80
2017-12-29T13:42:18.142Z,6.57
2017-12-29T13:44:46.525Z,5.87
2017-12-29T13:47:14.375Z,5.00
2017-12-29T13:49:42.291Z,5.77
2017-12-29T13:52:10.131Z,4.50
2017-12-29T13:54:37.993Z,4.50
2017-12-29T13:57:05.879Z,7.47
2017-12-29T13:59:33.768Z,8.33
2017-12-29T14:02:01.615Z,12.13
2017-12-29T14:04:29.499Z,10.43
2017-12-29T14:06:57.371Z,10.30
2017-12-29T14:09:25.220Z,8.10
2017-12-29T14:11:53.099Z,7.20
2017-12-29T14:14:20.939Z,5.57
2017-12-29T14:16:48.783Z,5.03
2017-12-29T14:19:16.652Z,5.67
2017-12-29T14:21:44.499Z,5.40
2017-12-29T14:24:12.323Z,5.37
2017-12-29T14:26:40.192Z,5.20
2017-12-29T14:29:08.036Z,5.30
2017-12-29T14:31:35.892Z,6.87
2017-12-29T14:34:03.803Z,6.10
2017-12-29T14:36:31.689Z,5.23
2017-12-29T14:38:59.563Z,6.03
2017-12-29T14:41:27.443Z,4.67
2017-12-29T14:43:55.295Z,5.30
2017-12-29T14:46:23.159Z,6.07
2017-12-29T14:48:51.037Z,6.20
2017-12-29T14:51:18.868Z,6.67
2017-12-29T14:53:46.738Z,6.30
2017-12-29T14:56:14.619Z,6.00
2017-12-29T14:58:42.452Z,6.67
2017-12-29T15:01:10.307Z,6.97
2017-12-29T15:03:38.187Z,6.77
2017-12-29T15:06:06.052Z,7.33
2017-12-29T15:08:33.915Z,5.23
2017-12-29T15:11:01.803Z,5.57
2017-12-29T15:13:29.643Z,10.70
2017-12-29T15:15:57.543Z,5.83
2017-12-29T15:18:25.420Z,6.93
2017-12-29T15:20:54.095Z,4.90
2017-12-29T15:23:21.955Z,6.10
2017-12-29T15:25:49.878Z,6.20
2017-12-29T15:28:17.722Z,7.27
2017-12-29T15:30:45.571Z,7.13
2017-12-29T15:33:13.450Z,10.40
2017-12-29T15:35:41.292Z,7.73
2017-12-29T15:38:09.346Z,8.20
2017-12-29T15:40:40.933Z,7.83
2017-12-29T15:43:09.123Z,6.20
2017-12-29T15:45:36.960Z,6.33
2017-12-29T15:48:04.874Z,6.30
2017-12-29T15:50:32.817Z,6.63
2017-12-29T15:53:00.712Z,6.60
2017-12-29T15:55:29.601Z,6.53
2017-12-29T15:57:57.676Z,6.60
2017-12-29T16:00:25.858Z,6.67
2017-12-29T16:02:53.722Z,5.80
2017-12-29T16:05:21.588Z,6.70
2017-12-29T16:07:49.456Z,8.17
2017-12-29T16:10:17.453Z,8.60
2017-12-29T16:12:45.295Z,7.53
2017-12-29T16:15:13.128Z,8.13
2017-12-29T16:17:41.004Z,7.20
2017-12-29T16:20:08.844Z,7.10
2017-12-29T16:22:36.700Z,6.63
2017-12-29T16:25:04.588Z,7.00
2017-12-29T16:27:32.460Z,10.40
2017-12-29T16:30:00.329Z,6.90
2017-12-29T16:32:28.219Z,6.50
2017-12-29T16:34:56.119Z,5.83
2017-12-29T16:37:23.974Z,7.40
2017-12-29T16:39:51.904Z,6.70
2017-12-29T16:42:19.771Z,8.07
2017-12-29T16:44:48.257Z,6.70
2017-12-29T16:47:16.119Z,7.60
2017-12-29T16:49:44.022Z,6.67
2017-12-29T16:52:11.895Z,7.10
2017-12-29T16:54:39.780Z,6.20
2017-12-29T16:57:07.662Z,6.93
2017-12-29T16:59:36.461Z,6.60
2017-12-29T17:02:04.356Z,6.40
2017-12-29T17:04:32.204Z,10.80
2017-12-29T17:07:00.048Z,9.13
2017-12-29T17:09:27.920Z,8.60
2017-12-29T17:11:55.768Z,8.67
2017-12-29T17:14:23.648Z,6.43
2017-12-29T17:16:51.528Z,6.87
2017-12-29T17:19:19.834Z,11.23
2017-12-29T17:21:47.727Z,8.80
2017-12-29T17:24:15.787Z,9.37
2017-12-29T17:26:43.629Z,8.23
2017-12-29T17:29:11.483Z,7.00
2017-12-29T17:31:39.372Z,8.77
2017-12-29T17:34:07.488Z,7.43
2017-12-29T17:36:35.360Z,8.33
2017-12-29T17:39:03.369Z,8.30
2017-12-29T17:41:31.497Z,7.73
2017-12-29T17:43:59.404Z,10.10
2017-12-29T17:46:27.256Z,9.17
2017-12-29T17:48:55.147Z,8.40
2017-12-29T17:51:23.120Z,8.13
2017-12-29T17:53:51.039Z,7.13
2017-12-29T17:56:18.895Z,7.13
2017-12-29T17:58:46.903Z,6.03
2017-12-29T18:01:14.839Z,6.13
2017-12-29T18:03:42.808Z,6.43
2017-12-29T18:06:10.643Z,7.23
2017-12-29T18:08:38.535Z,8.30
2017-12-29T18:11:06.401Z,6.70
2017-12-29T18:13:34.329Z,6.60
2017-12-29T18:16:02.489Z,8.20
2017-12-29T18:18:30.344Z,6.87
2017-12-29T18:20:58.192Z,8.07
2017-12-29T18:23:26.111Z,7.00
2017-12-29T18:25:53.987Z,6.80
2017-12-29T18:28:21.881Z,6.30
2017-12-29T18:30:49.773Z,6.90
2017-12-29T18:33:17.637Z,6.90
2017-12-29T18:35:45.476Z,7.00
2017-12-29T18:38:13.331Z,7.13
2017-12-29T18:40:41.188Z,7.07
2017-12-29T18:43:09.084Z,7.93
2017-12-29T18:45:37.050Z,6.80
2017-12-29T18:48:04.906Z,8.20
2017-12-29T18:50:32.762Z,7.30
2017-12-29T18:53:00.642Z,7.90
2017-12-29T18:55:28.489Z,6.13
2017-12-29T18:57:56.361Z,7.70
2017-12-29T19:00:24.244Z,6.40
2017-12-29T19:02:52.099Z,7.40
2017-12-29T19:05:19.982Z,7.00
2017-12-29T19:07:47.874Z,7.20
2017-12-29T19:10:15.776Z,7.37
2017-12-29T19:12:43.610Z,7.27
2017-12-29T19:15:11.552Z,8.40
2017-12-29T19:17:39.380Z,8.33
2017-12-29T19:20:07.248Z,6.70
2017-12-29T19:22:35.157Z,8.93
2017-12-29T19:25:03.010Z,6.80
2017-12-29T19:27:30.889Z,6.57
2017-12-29T19:29:58.767Z,7.87
2017-12-29T19:32:26.600Z,6.50
2017-12-29T19:34:54.444Z,6.97
2017-12-29T19:37:22.447Z,7.33
2017-12-29T19:39:50.314Z,6.37
2017-12-29T19:42:25.107Z,5.40
2017-12-29T19:44:52.987Z,7.97
2017-12-29T19:47:20.837Z,6.57
2017-12-29T19:49:48.768Z,6.27
2017-12-29T19:52:16.614Z,5.47
2017-12-29T19:54:44.468Z,6.40
2017-12-29T19:57:12.369Z,6.50
2017-12-29T19:59:40.235Z,6.30
2017-12-29T20:02:08.152Z,5.63
2017-12-29T20:04:36.083Z,6.30
2017-12-29T20:07:03.919Z,6.57
2017-12-29T20:09:31.788Z,7.43
2017-12-29T20:11:59.654Z,6.57
2017-12-29T20:14:27.505Z,6.87
2017-12-29T20:16:55.387Z,6.80
2017-12-29T20:19:23.284Z,6.00
2017-12-29T20:21:51.167Z,6.47
2017-12-29T20:24:19.081Z,6.10
2017-12-29T20:26:47.725Z,7.00
2017-12-29T20:29:16.962Z,7.03
2017-12-29T20:31:47.677Z,8.33
2017-12-29T20:34:15.638Z,8.80
2017-12-29T20:36:46.603Z,8.70
2017-12-29T20:39:14.605Z,9.80
2017-12-29T20:41:42.784Z,9.20
2017-12-29T20:44:10.869Z,9.50
2017-12-29T20:46:40.953Z,11.80
2017-12-29T20:49:09.523Z,10.53
2017-12-29T20:51:39.828Z,9.70
2017-12-29T20:54:08.658Z,8.53
2017-12-29T20:56:36.659Z,9.17
2017-12-29T20:59:04.543Z,8.93
2017-12-29T21:01:32.415Z,9.53
2017-12-29T21:04:00.275Z,9.30
2017-12-29T21:06:28.144Z,8.73
2017-12-29T21:08:56.049Z,10.00
2017-12-29T21:11:23.913Z,10.10
2017-12-29T21:13:51.784Z,8.90
2017-12-29T21:16:19.647Z,8.47
2017-12-29T21:18:47.507Z,8.33
2017-12-29T21:21:15.352Z,8.27
2017-12-29T21:23:43.245Z,8.87
2017-12-29T21:26:11.110Z,8.77
2017-12-29T21:28:38.988Z,8.43
2017-12-29T21:31:06.887Z,5.60
2017-12-29T21:33:34.765Z,8.00
2017-12-29T21:36:02.640Z,8.03
2017-12-29T21:38:30.523Z,7.50
2017-12-29T21:40:58.380Z,7.00
2017-12-29T21:43:26.254Z,7.67
2017-12-29T21:45:54.158Z,6.87
2017-12-29T21:48:22.050Z,4.93
2017-12-29T21:50:49.908Z,5.50
2017-12-29T21:53:17.799Z,6.10
2017-12-29T21:55:45.918Z,6.03
2017-12-29T21:58:13.804Z,6.33
2017-12-29T22:00:41.722Z,5.87
2017-12-29T22:03:09.604Z,5.53
2017-12-29T22:05:37.477Z,6.60
2017-12-29T22:08:05.375Z,5.40
2017-12-29T22:10:33.223Z,5.90
2017-12-29T22:13:01.088Z,5.90
2017-12-29T22:15:28.960Z,6.03
2017-12-29T22:17:56.800Z,5.33
2017-12-29T22:20:24.668Z,5.80
2017-12-29T22:22:52.568Z,5.53
2017-12-29T22:25:20.432Z,6.20
2017-12-29T22:27:48.299Z,6.50
2017-12-29T22:30:16.167Z,5.67
2017-12-29T22:32:44.004Z,6.30
2017-12-29T22:35:11.843Z,6.33
2017-12-29T22:37:39.708Z,4.73
2017-12-29T22:40:07.563Z,4.83
2017-12-29T22:42:35.428Z,6.20
2017-12-29T22:45:03.370Z,6.47
2017-12-29T22:47:31.229Z,6.13
2017-12-29T22:49:59.127Z,5.30
2017-12-29T22:52:27.536Z,7.50
2017-12-29T22:54:55.608Z,6.03
2017-12-29T22:57:23.550Z,5.80
2017-12-29T22:59:51.460Z,5.50
2017-12-29T23:04:53.813Z,4.97
2017-12-29T23:07:21.668Z,5.80
2017-12-29T23:09:49.550Z,5.13
2017-12-29T23:12:17.462Z,6.87
2017-12-29T23:14:45.293Z,7.10
2017-12-29T23:17:13.148Z,4.33
2017-12-29T23:19:41.077Z,6.10
2017-12-29T23:22:08.944Z,5.30
2017-12-29T23:24:36.800Z,6.10
2017-12-29T23:27:04.763Z,5.57
2017-12-29T23:29:32.617Z,6.03
2017-12-29T23:32:03.416Z,5.60
2017-12-29T23:34:31.589Z,6.40
2017-12-29T23:36:59.461Z,6.40
2017-12-29T23:39:27.307Z,6.90
2017-12-29T23:41:55.198Z,6.30
2017-12-29T23:44:23.069Z,5.47
2017-12-29T23:46:50.955Z,5.67
2017-12-29T23:49:18.837Z,5.33
2017-12-29T23:51:46.759Z,5.53
2017-12-29T23:54:14.773Z,6.30
2017-12-29T23:56:42.681Z,4.67
2017-12-29T23:59:10.528Z,6.40
